createdAt,value
2022-11-06T00:00:10.838Z,23.90
2022-11-06T00:02:38.838Z,25.10
2022-11-06T00:05:25.546Z,28.60
2022-11-06T00:07:53.623Z,25.15
2022-11-06T00:10:23.355Z,24.90
2022-11-06T00:12:51.394Z,22.88
2022-11-06T00:15:19.542Z,23.70
2022-11-06T00:17:50.466Z,29.58
2022-11-06T00:20:18.559Z,28.75
2022-11-06T00:22:46.636Z,30.05
2022-11-06T00:25:14.487Z,22.60
2022-11-06T00:27:44.096Z,24.88
2022-11-06T00:30:12.816Z,24.92
2022-11-06T00:32:41.055Z,24.55
2022-11-06T00:35:09.548Z,24.15
2022-11-06T00:37:37.426Z,24.95
2022-11-06T00:40:06.070Z,30.20
2022-11-06T00:42:33.975Z,25.30
2022-11-06T00:45:04.567Z,26.33
2022-11-06T00:47:32.645Z,27.35
2022-11-06T00:50:00.532Z,29.92
2022-11-06T00:52:30.405Z,26.48
2022-11-06T00:54:58.292Z,28.05
2022-11-06T00:57:26.440Z,27.90
2022-11-06T00:59:54.312Z,31.48
2022-11-06T01:02:23.641Z,25.75
2022-11-06T01:04:51.753Z,31.60
2022-11-06T01:07:19.932Z,27.08
2022-11-06T01:09:48.313Z,25.40
2022-11-06T01:12:16.680Z,26.75
2022-11-06T01:14:45.455Z,26.45
2022-11-06T01:17:13.914Z,25.85
2022-11-06T01:19:43.425Z,24.70
2022-11-06T01:22:11.528Z,25.67
2022-11-06T01:24:39.645Z,26.00
2022-11-06T01:29:55.834Z,25.83
2022-11-06T01:32:23.752Z,17.77
2022-11-06T01:34:53.228Z,22.52
2022-11-06T01:37:21.206Z,21.70
2022-11-06T01:39:50.909Z,27.02
2022-11-06T01:42:21.221Z,24.45
2022-11-06T01:45:27.376Z,24.70
2022-11-06T01:47:55.342Z,24.02
2022-11-06T01:50:25.519Z,25.77
2022-11-06T01:52:53.919Z,28.70
2022-11-06T01:55:25.649Z,25.83
2022-11-06T01:57:55.043Z,21.75
2022-11-06T02:00:22.907Z,26.88
2022-11-06T02:02:51.371Z,25.38
2022-11-06T02:05:19.478Z,28.27
2022-11-06T02:07:49.680Z,21.83
2022-11-06T02:10:17.904Z,22.00
2022-11-06T02:13:03.528Z,23.05
2022-11-06T02:15:40.912Z,20.70
2022-11-06T02:18:41.123Z,21.38
2022-11-06T02:21:41.678Z,20.80
2022-11-06T02:24:31.287Z,18.00
2022-11-06T02:27:10.290Z,21.65
2022-11-06T02:29:48.271Z,21.77
2022-11-06T02:32:21.794Z,18.70
2022-11-06T02:34:52.628Z,23.15
2022-11-06T02:37:27.204Z,15.93
2022-11-06T02:39:58.405Z,17.42
2022-11-06T02:42:30.743Z,15.90
2022-11-06T02:45:00.591Z,15.88
2022-11-06T02:47:32.492Z,19.90
2022-11-06T02:50:05.733Z,20.38
2022-11-06T02:52:38.045Z,22.15
2022-11-06T02:55:10.717Z,24.05
2022-11-06T02:57:44.960Z,17.85
2022-11-06T03:00:15.906Z,18.83
2022-11-06T03:02:48.265Z,18.00
2022-11-06T03:05:21.006Z,21.40
2022-11-06T03:07:56.016Z,20.05
2022-11-06T03:10:29.582Z,25.23
2022-11-06T03:13:02.873Z,18.33
2022-11-06T03:15:36.159Z,21.35
2022-11-06T03:18:14.261Z,18.52
2022-11-06T03:20:50.103Z,18.92
2022-11-06T03:23:25.403Z,22.70
2022-11-06T03:25:57.102Z,22.00
2022-11-06T03:28:32.595Z,22.70
2022-11-06T03:31:06.233Z,24.02
2022-11-06T03:33:39.242Z,17.30
2022-11-06T03:36:11.362Z,23.95
2022-11-06T03:38:44.557Z,20.45
2022-11-06T03:41:17.254Z,20.95
2022-11-06T03:43:50.250Z,20.65
2022-11-06T03:46:24.957Z,20.85
2022-11-06T03:48:56.640Z,23.67
2022-11-06T03:51:29.346Z,22.48
2022-11-06T03:54:01.380Z,17.17
2022-11-06T03:56:36.541Z,19.58
2022-11-06T03:59:08.433Z,19.92
2022-11-06T04:01:39.967Z,17.88
2022-11-06T04:04:13.998Z,20.92
2022-11-06T04:06:44.967Z,22.77
2022-11-06T04:09:33.465Z,16.00
2022-11-06T04:12:22.026Z,19.48
2022-11-06T04:14:55.737Z,20.95
2022-11-06T04:17:27.375Z,19.40
2022-11-06T04:19:58.762Z,16.52
2022-11-06T04:22:37.884Z,18.30
2022-11-06T04:25:36.685Z,18.90
2022-11-06T04:28:18.636Z,16.73
2022-11-06T04:30:56.702Z,16.77
2022-11-06T04:36:03.425Z,15.88
2022-11-06T04:38:39.804Z,19.17
2022-11-06T04:41:17.320Z,16.83
2022-11-06T04:43:49.492Z,14.82
2022-11-06T04:46:22.728Z,21.30
2022-11-06T04:48:51.255Z,18.85
2022-11-06T04:51:24.594Z,19.55
2022-11-06T04:53:54.489Z,17.77
2022-11-06T04:56:29.198Z,17.27
2022-11-06T04:58:57.363Z,16.08
2022-11-06T05:01:27.007Z,13.50
2022-11-06T05:03:55.077Z,14.40
2022-11-06T05:06:28.657Z,15.60
2022-11-06T05:08:59.028Z,18.02
2022-11-06T05:11:26.996Z,19.02
2022-11-06T05:13:54.947Z,21.95
2022-11-06T05:16:22.853Z,17.58
2022-11-06T05:18:52.193Z,15.45
2022-11-06T05:21:37.614Z,15.00
2022-11-06T05:24:06.504Z,13.23
2022-11-06T05:26:34.654Z,12.63
2022-11-06T05:29:02.720Z,10.18
2022-11-06T05:31:30.618Z,15.90
2022-11-06T05:33:59.958Z,13.35
2022-11-06T05:36:27.852Z,12.18
2022-11-06T05:38:55.771Z,11.18
2022-11-06T05:41:23.726Z,12.85
2022-11-06T05:43:51.859Z,9.68
2022-11-06T05:46:46.446Z,10.10
2022-11-06T05:49:10.386Z,10.65
2022-11-06T05:51:38.300Z,10.45
2022-11-06T05:54:06.328Z,12.55
2022-11-06T05:56:34.234Z,11.95
2022-11-06T05:59:02.250Z,12.13
2022-11-06T06:01:30.490Z,13.65
2022-11-06T06:03:58.508Z,13.02
2022-11-06T06:06:27.986Z,14.85
2022-11-06T06:08:56.059Z,13.30
2022-11-06T06:11:23.981Z,14.20
2022-11-06T06:13:51.926Z,11.77
2022-11-06T06:16:19.823Z,12.45
2022-11-06T06:18:50.116Z,13.73
2022-11-06T06:21:18.353Z,13.32
2022-11-06T06:23:47.601Z,17.48
2022-11-06T06:26:15.512Z,13.55
2022-11-06T06:28:43.408Z,11.13
2022-11-06T06:31:12.393Z,15.38
2022-11-06T06:33:40.299Z,13.13
2022-11-06T06:36:09.194Z,13.35
2022-11-06T06:38:37.197Z,11.80
2022-11-06T06:41:08.341Z,11.18
2022-11-06T06:43:36.981Z,12.07
2022-11-06T06:46:06.719Z,17.90
2022-11-06T06:48:35.306Z,17.17
2022-11-06T06:51:04.849Z,12.50
2022-11-06T06:53:32.862Z,16.83
2022-11-06T06:56:01.666Z,15.27
2022-11-06T06:58:31.331Z,13.32
2022-11-06T07:01:02.003Z,19.90
2022-11-06T07:03:30.278Z,15.77
2022-11-06T07:05:59.354Z,15.60
2022-11-06T07:08:27.971Z,11.27
2022-11-06T07:11:00.495Z,11.10
2022-11-06T07:13:35.484Z,13.48
2022-11-06T07:16:04.565Z,14.52
2022-11-06T07:18:32.528Z,13.40
2022-11-06T07:21:00.397Z,16.15
2022-11-06T07:23:28.308Z,15.68
2022-11-06T07:25:56.422Z,11.98
2022-11-06T07:28:24.423Z,15.82
2022-11-06T07:30:53.985Z,15.60
2022-11-06T07:33:21.902Z,19.83
2022-11-06T07:35:49.783Z,13.25
2022-11-06T07:38:17.793Z,16.38
2022-11-06T07:40:45.715Z,17.08
2022-11-06T07:43:13.974Z,18.17
2022-11-06T07:45:41.872Z,17.58
2022-11-06T07:48:11.190Z,14.73
2022-11-06T07:50:39.305Z,16.65
2022-11-06T07:53:07.301Z,17.17
2022-11-06T07:55:40.843Z,17.75
2022-11-06T07:58:10.132Z,14.18
2022-11-06T08:00:38.100Z,12.65
2022-11-06T08:03:06.032Z,13.43
2022-11-06T08:05:35.245Z,12.88
2022-11-06T08:08:03.157Z,13.82
2022-11-06T08:10:31.059Z,14.80
2022-11-06T08:13:01.378Z,13.88
2022-11-06T08:15:29.293Z,12.18
2022-11-06T08:17:59.272Z,13.48
2022-11-06T08:20:27.373Z,12.52
2022-11-06T08:23:00.978Z,11.20
2022-11-06T08:25:30.120Z,12.68
2022-11-06T08:27:58.523Z,14.35
2022-11-06T08:30:27.518Z,15.75
2022-11-06T08:32:56.614Z,12.48
2022-11-06T08:35:24.504Z,13.70
2022-11-06T08:37:52.393Z,14.68
2022-11-06T08:40:25.320Z,15.45
2022-11-06T08:43:00.226Z,15.20
2022-11-06T08:45:28.270Z,12.95
2022-11-06T08:47:56.333Z,16.65
2022-11-06T08:50:24.195Z,15.48
2022-11-06T08:52:52.163Z,13.80
2022-11-06T08:55:21.346Z,12.13
2022-11-06T08:57:49.241Z,15.07
2022-11-06T09:00:17.857Z,12.40
2022-11-06T09:02:45.737Z,13.00
2022-11-06T09:05:13.634Z,15.45
2022-11-06T09:07:41.589Z,14.73
2022-11-06T09:10:10.133Z,13.90
2022-11-06T09:12:39.497Z,10.25
2022-11-06T09:15:08.427Z,12.13
2022-11-06T09:17:42.551Z,9.20
2022-11-06T09:20:11.192Z,8.50
2022-11-06T09:22:39.125Z,9.35
2022-11-06T09:25:08.364Z,9.63
2022-11-06T09:27:44.314Z,12.40
2022-11-06T09:30:14.126Z,6.90
2022-11-06T09:32:46.775Z,8.43
2022-11-06T09:35:14.710Z,12.07
2022-11-06T09:37:42.892Z,8.30
2022-11-06T09:40:22.159Z,8.35
2022-11-06T09:43:01.675Z,6.72
2022-11-06T09:45:32.628Z,7.53
2022-11-06T09:48:05.446Z,7.40
2022-11-06T09:50:37.726Z,5.80
2022-11-06T09:53:11.820Z,8.05
2022-11-06T09:55:41.934Z,5.50
2022-11-06T09:58:16.745Z,8.43
2022-11-06T10:00:45.339Z,5.57
2022-11-06T10:03:19.198Z,6.15
2022-11-06T10:05:47.839Z,5.78
2022-11-06T10:08:18.634Z,5.68
2022-11-06T10:10:56.827Z,4.78
2022-11-06T10:16:08.819Z,5.07
2022-11-06T10:18:48.419Z,6.45
2022-11-06T10:21:24.579Z,8.73
2022-11-06T10:23:55.642Z,6.93
2022-11-06T10:26:33.894Z,4.70
2022-11-06T10:29:31.929Z,5.15
2022-11-06T10:32:12.502Z,6.65
2022-11-06T10:34:43.710Z,6.85
2022-11-06T10:37:17.669Z,6.90
2022-11-06T10:39:47.899Z,4.97
2022-11-06T10:42:18.933Z,4.28
2022-11-06T10:44:54.652Z,5.32
2022-11-06T10:47:23.978Z,4.28
2022-11-06T10:49:54.888Z,5.97
2022-11-06T10:52:45.329Z,7.05
2022-11-06T10:55:42.750Z,4.13
2022-11-06T10:58:14.706Z,6.20
2022-11-06T11:00:44.513Z,5.50
2022-11-06T11:03:23.062Z,5.93
2022-11-06T11:05:51.236Z,3.63
2022-11-06T11:08:42.030Z,4.53
2022-11-06T11:11:24.157Z,3.60
2022-11-06T11:14:22.801Z,4.32
2022-11-06T11:16:52.610Z,3.23
2022-11-06T11:19:36.068Z,4.10
2022-11-06T11:22:06.341Z,3.45
2022-11-06T11:24:34.260Z,2.40
2022-11-06T11:27:04.719Z,2.90
2022-11-06T11:29:35.192Z,4.68
2022-11-06T11:32:07.956Z,3.72
2022-11-06T11:34:41.401Z,3.00
2022-11-06T11:37:24.979Z,3.90
2022-11-06T11:39:52.889Z,2.92
2022-11-06T11:42:27.010Z,3.67
2022-11-06T11:45:15.505Z,2.70
2022-11-06T11:47:47.857Z,3.50
2022-11-06T11:50:25.150Z,5.95
2022-11-06T11:52:56.218Z,3.33
2022-11-06T11:55:28.103Z,3.65
2022-11-06T11:57:59.104Z,4.50
2022-11-06T12:00:28.349Z,2.92
2022-11-06T12:03:01.527Z,3.15
2022-11-06T12:05:34.533Z,2.78
2022-11-06T12:08:03.022Z,3.92
2022-11-06T12:10:34.676Z,2.67
2022-11-06T12:13:05.416Z,2.33
2022-11-06T12:15:44.512Z,3.90
2022-11-06T12:18:17.377Z,3.45
2022-11-06T12:20:53.394Z,2.65
2022-11-06T12:23:29.096Z,2.50
2022-11-06T12:26:02.844Z,2.40
2022-11-06T12:28:36.053Z,1.52
2022-11-06T12:31:10.394Z,3.17
2022-11-06T12:34:05.101Z,2.20
2022-11-06T12:36:34.678Z,2.17
2022-11-06T12:39:07.210Z,1.67
2022-11-06T12:41:38.098Z,2.60
2022-11-06T12:44:12.936Z,2.78
2022-11-06T12:46:49.344Z,2.40
2022-11-06T12:49:51.590Z,2.40
2022-11-06T12:52:33.107Z,2.17
2022-11-06T12:55:24.671Z,2.10
2022-11-06T12:58:16.268Z,2.00
2022-11-06T13:00:57.891Z,1.75
2022-11-06T13:03:50.173Z,1.50
2022-11-06T13:06:27.226Z,3.42
2022-11-06T13:09:01.865Z,1.95
2022-11-06T13:11:38.050Z,2.00
2022-11-06T13:14:14.874Z,1.70
2022-11-06T13:16:50.087Z,1.70
2022-11-06T13:19:25.321Z,1.88
2022-11-06T13:22:09.019Z,1.70
2022-11-06T13:24:42.507Z,1.73
2022-11-06T13:27:19.200Z,2.25
2022-11-06T13:29:47.768Z,2.00
2022-11-06T13:32:18.188Z,2.20
2022-11-06T13:34:50.541Z,2.40
2022-11-06T13:37:32.065Z,1.85
2022-11-06T13:40:06.648Z,1.55
2022-11-06T13:42:40.765Z,2.05
2022-11-06T13:45:10.494Z,2.45
2022-11-06T13:47:59.673Z,2.35
2022-11-06T13:50:33.634Z,2.40
2022-11-06T13:53:11.127Z,2.40
2022-11-06T13:55:54.668Z,1.58
2022-11-06T13:58:59.636Z,2.28
2022-11-06T14:01:43.109Z,2.08
2022-11-06T14:04:39.469Z,1.55
2022-11-06T14:07:09.365Z,1.92
2022-11-06T14:09:43.732Z,1.90
2022-11-06T14:12:18.353Z,2.05
2022-11-06T14:14:47.550Z,2.65
2022-11-06T14:17:23.208Z,2.38
2022-11-06T14:20:07.892Z,2.42
2022-11-06T14:22:36.929Z,3.60
2022-11-06T14:25:38.484Z,3.05
2022-11-06T14:28:09.712Z,2.22
2022-11-06T14:31:11.189Z,2.60
2022-11-06T14:34:01.044Z,2.20
2022-11-06T14:36:32.384Z,2.22
2022-11-06T14:39:01.399Z,2.42
2022-11-06T14:41:54.956Z,2.05
2022-11-06T14:44:33.463Z,2.35
2022-11-06T14:47:04.196Z,2.42
2022-11-06T14:49:37.649Z,8.70
2022-11-06T14:52:08.894Z,4.05
2022-11-06T14:54:41.395Z,4.35
2022-11-06T14:57:13.761Z,3.10
2022-11-06T14:59:43.731Z,2.75
2022-11-06T15:02:19.440Z,3.33
2022-11-06T15:04:54.348Z,4.35
2022-11-06T15:08:03.382Z,3.78
2022-11-06T15:10:48.452Z,4.75
2022-11-06T15:13:30.096Z,5.68
2022-11-06T15:16:13.010Z,7.60
2022-11-06T15:18:46.566Z,4.85
2022-11-06T15:21:25.136Z,5.88
2022-11-06T15:24:02.750Z,4.38
2022-11-06T15:26:34.898Z,4.45
2022-11-06T15:29:18.025Z,4.93
2022-11-06T15:31:50.885Z,4.88
2022-11-06T15:34:24.920Z,6.68
2022-11-06T15:36:56.403Z,4.45
2022-11-06T15:39:38.967Z,5.40
2022-11-06T15:42:09.980Z,4.18
2022-11-06T15:44:42.130Z,7.63
2022-11-06T15:47:22.250Z,8.45
2022-11-06T15:50:06.024Z,7.20
2022-11-06T15:52:34.092Z,9.02
2022-11-06T15:55:06.299Z,6.85
2022-11-06T15:57:34.570Z,5.35
2022-11-06T16:00:10.279Z,5.80
2022-11-06T16:02:49.693Z,6.05
2022-11-06T16:05:19.253Z,6.63
2022-11-06T16:07:48.473Z,7.50
2022-11-06T16:10:17.589Z,5.60
2022-11-06T16:12:46.979Z,5.82
2022-11-06T16:15:47.004Z,7.47
2022-11-06T16:18:20.268Z,6.10
2022-11-06T16:20:51.912Z,6.60
2022-11-06T16:23:29.350Z,5.80
2022-11-06T16:26:04.880Z,8.35
2022-11-06T16:28:34.630Z,8.70
2022-11-06T16:31:07.689Z,6.47
2022-11-06T16:33:37.061Z,6.53
2022-11-06T16:36:10.849Z,6.85
2022-11-06T16:38:44.677Z,8.20
2022-11-06T16:41:34.076Z,8.50
2022-11-06T16:44:29.667Z,7.05
2022-11-06T16:47:14.284Z,11.77
2022-11-06T16:49:48.909Z,8.43
2022-11-06T16:52:25.268Z,8.75
2022-11-06T16:54:55.125Z,8.02
2022-11-06T16:57:26.320Z,7.25
2022-11-06T17:00:01.303Z,7.25
2022-11-06T17:02:32.475Z,6.63
2022-11-06T17:05:17.188Z,6.68
2022-11-06T17:07:46.962Z,8.02
2022-11-06T17:10:37.359Z,7.43
2022-11-06T17:13:18.711Z,5.72
2022-11-06T17:15:48.638Z,5.38
2022-11-06T17:18:19.617Z,4.53
2022-11-06T17:20:52.685Z,7.35
2022-11-06T17:23:21.166Z,5.70
2022-11-06T17:25:50.094Z,4.85
2022-11-06T17:28:18.869Z,4.60
2022-11-06T17:30:47.637Z,6.32
2022-11-06T17:33:16.376Z,4.03
2022-11-06T17:35:44.531Z,5.63
2022-11-06T17:38:15.794Z,5.38
2022-11-06T17:40:44.541Z,3.75
2022-11-06T17:43:13.373Z,3.85
2022-11-06T17:45:44.500Z,5.53
2022-11-06T17:48:12.399Z,5.07
2022-11-06T17:50:54.214Z,6.40
2022-11-06T17:53:23.557Z,13.35
2022-11-06T17:55:51.457Z,6.80
2022-11-06T17:58:19.503Z,5.40
2022-11-06T18:00:47.759Z,3.97
2022-11-06T18:03:19.531Z,4.95
2022-11-06T18:05:49.009Z,5.45
2022-11-06T18:08:17.179Z,5.07
2022-11-06T18:10:51.444Z,4.20
2022-11-06T18:13:19.492Z,5.13
2022-11-06T18:15:47.473Z,5.72
2022-11-06T18:18:15.630Z,4.82
2022-11-06T18:20:45.920Z,5.85
2022-11-06T18:23:14.035Z,5.25
2022-11-06T18:25:42.210Z,5.57
2022-11-06T18:28:11.476Z,5.30
2022-11-06T18:30:39.825Z,7.25
2022-11-06T18:33:07.761Z,5.57
2022-11-06T18:35:35.646Z,6.07
2022-11-06T18:38:04.182Z,5.07
2022-11-06T18:40:32.070Z,4.63
2022-11-06T18:43:00.127Z,4.85
2022-11-06T18:45:29.436Z,5.32
2022-11-06T18:47:57.890Z,5.47
2022-11-06T18:50:25.989Z,11.38
2022-11-06T18:52:57.764Z,5.35
2022-11-06T18:55:26.131Z,5.10
2022-11-06T18:57:54.717Z,6.63
2022-11-06T19:00:22.881Z,5.50
2022-11-06T19:02:52.885Z,5.95
2022-11-06T19:05:20.899Z,6.25
2022-11-06T19:07:52.792Z,5.68
2022-11-06T19:10:23.147Z,4.68
2022-11-06T19:12:51.321Z,5.82
2022-11-06T19:15:19.213Z,4.88
2022-11-06T19:17:47.142Z,5.22
2022-11-06T19:20:16.428Z,5.47
2022-11-06T19:22:44.297Z,6.38
2022-11-06T19:25:12.292Z,4.75
2022-11-06T19:27:40.245Z,4.88
2022-11-06T19:30:09.395Z,4.60
2022-11-06T19:32:37.356Z,5.78
2022-11-06T19:35:05.849Z,4.97
2022-11-06T19:37:37.221Z,7.55
2022-11-06T19:40:06.651Z,3.72
2022-11-06T19:42:34.996Z,4.78
2022-11-06T19:45:02.840Z,3.47
2022-11-06T19:47:32.317Z,3.45
2022-11-06T19:50:00.367Z,4.15
2022-11-06T19:52:41.562Z,4.32
2022-11-06T19:55:24.661Z,5.35
2022-11-06T19:57:55.583Z,4.10
2022-11-06T20:00:23.465Z,4.85
2022-11-06T20:02:51.806Z,3.33
2022-11-06T20:05:19.808Z,2.53
2022-11-06T20:07:47.754Z,4.10
2022-11-06T20:10:17.053Z,4.15
2022-11-06T20:12:44.991Z,2.40
2022-11-06T20:15:12.938Z,3.88
2022-11-06T20:17:40.823Z,3.25
2022-11-06T20:20:10.001Z,2.75
2022-11-06T20:22:37.934Z,4.75
2022-11-06T20:25:06.412Z,1.60
2022-11-06T20:27:35.783Z,2.53
2022-11-06T20:30:04.048Z,2.78
2022-11-06T20:32:31.965Z,1.83
2022-11-06T20:35:00.503Z,1.92
2022-11-06T20:37:28.884Z,2.08
2022-11-06T20:39:56.812Z,3.72
2022-11-06T20:42:24.871Z,2.10
2022-11-06T20:44:54.097Z,2.78
2022-11-06T20:47:22.109Z,2.40
2022-11-06T20:49:50.006Z,3.72
2022-11-06T20:52:17.921Z,2.05
2022-11-06T20:54:47.633Z,2.75
2022-11-06T20:57:16.116Z,3.40
2022-11-06T20:59:44.121Z,2.17
2022-11-06T21:02:13.491Z,2.22
2022-11-06T21:04:41.519Z,10.35
2022-11-06T21:07:09.612Z,2.38
2022-11-06T21:09:37.502Z,1.75
2022-11-06T21:12:05.824Z,3.60
2022-11-06T21:14:34.379Z,2.90
2022-11-06T21:17:03.098Z,3.17
2022-11-06T21:19:33.133Z,1.67
2022-11-06T21:22:01.008Z,2.15
2022-11-06T21:24:28.901Z,3.13
2022-11-06T21:26:57.257Z,3.08
2022-11-06T21:29:26.425Z,2.20
2022-11-06T21:31:54.583Z,2.20
2022-11-06T21:34:22.705Z,4.60
2022-11-06T21:36:52.037Z,3.15
2022-11-06T21:39:20.926Z,1.63
2022-11-06T21:41:49.136Z,2.78
2022-11-06T21:44:18.425Z,1.80
2022-11-06T21:46:46.637Z,2.97
2022-11-06T21:49:15.070Z,2.15
2022-11-06T21:51:43.013Z,1.90
2022-11-06T21:54:30.524Z,2.13
2022-11-06T21:56:58.626Z,2.55
2022-11-06T21:59:28.812Z,3.90
2022-11-06T22:01:57.567Z,1.55
2022-11-06T22:04:25.649Z,2.38
2022-11-06T22:06:53.561Z,2.35
2022-11-06T22:09:25.582Z,1.90
2022-11-06T22:11:54.812Z,4.03
2022-11-06T22:14:22.896Z,2.95
2022-11-06T22:16:50.826Z,1.83
2022-11-06T22:19:18.766Z,2.20
2022-11-06T22:21:46.710Z,3.88
2022-11-06T22:24:15.457Z,4.80
2022-11-06T22:26:44.823Z,3.05
2022-11-06T22:29:14.740Z,3.05
2022-11-06T22:31:42.809Z,3.80
2022-11-06T22:34:10.903Z,1.83
2022-11-06T22:36:39.005Z,4.30
2022-11-06T22:39:08.884Z,2.15
2022-11-06T22:41:37.214Z,1.88
2022-11-06T22:44:07.585Z,4.20
2022-11-06T22:46:35.791Z,3.75
2022-11-06T22:49:04.992Z,2.63
2022-11-06T22:51:33.972Z,2.65
2022-11-06T22:54:02.922Z,2.70
2022-11-06T22:56:32.618Z,2.85
2022-11-06T22:59:02.332Z,2.15
2022-11-06T23:01:40.177Z,2.97
2022-11-06T23:04:14.884Z,6.32
2022-11-06T23:06:43.625Z,3.45
2022-11-06T23:09:11.511Z,2.35
2022-11-06T23:11:39.539Z,2.88
2022-11-06T23:14:09.167Z,3.08
2022-11-06T23:16:56.446Z,2.70
2022-11-06T23:19:24.935Z,3.20
2022-11-06T23:22:13.382Z,3.28
2022-11-06T23:24:41.987Z,2.60
2022-11-06T23:27:10.894Z,4.93
2022-11-06T23:29:38.961Z,2.15
2022-11-06T23:32:08.637Z,3.65
2022-11-06T23:34:36.577Z,1.83
2022-11-06T23:37:04.507Z,2.92
2022-11-06T23:39:32.399Z,1.85
2022-11-06T23:42:00.258Z,2.70
2022-11-06T23:44:45.769Z,2.95
2022-11-06T23:47:15.030Z,1.75
2022-11-06T23:49:42.925Z,1.67
2022-11-06T23:52:10.817Z,1.92
2022-11-06T23:54:38.653Z,1.95
2022-11-06T23:57:08.101Z,3.30
2022-11-06T23:59:36.044Z,1.48
